05:39
Airports
History
Links
Donate
Help keep this website running!
PayPal
Bitcoin
This page is community maintained. The information is intended for PC simulator navigation or reference.
Always use approved charts for navigation.
YALM
ALLAMBIE
ALLAMBIE (YALM)
Hale, Northern Territory, Australia (872)
4
Lat/Lng:24° 15' 54.45" S / 134° 24' 10.23" E
-24.265126 / 134.402843
Elevation:1265'ft / 386mMSL
ID / ICAO:YALM
Runways:1
Longest:16-34
Dirt 837m / 2,746ft
Nearby Weather05:00 GMT 2017-09-20
Nearby weather at YBAS, Alice Springs located 44.9 nautical miles from YALM
Altimeter: 29.97
Visibility: 6.2 statute miles
Wind: 12 knots (from 290°)
Temp: 32°c / 90°f
Humidity: 10.3%

METAR: YBAS 200500Z AUTO 29012KT 240V300 9999 // NCD 32/M03 Q1015

(Powered by phpweather)
Runway 16 / 34
Dimensions:836.9 x 20.1m 2746' x 66'ft
Surface:Dirt
Runway 16 [A]Runway 34 [B]
Heading:162°TH 342°TH
Lat:
Lng:
24° 15' 41.62"S
134° 24' 5.75"E
24° 16' 7.28"S
134° 24' 14.71"E
User Notes and Comments
24° 15' 54.45" S / 134° 24' 10.23" E
Distance To
Airport ID:
Nearby Airports
4 Santa Teresa Mission 10.3 NM
YSTT N 355°
4 Deep Well 16.6 NM
YDPW W 262°
4 MARYVALE (NT) 35.5 NM
YMYV SW 221°
(C) Alice Springs 44.9 NM
YBAS ( WX ) NW 315°
4 HUGH RIVER 45.6 NM
YHGR WSW 254°
4 Ross River 46.7 NM
YROV N
4 RINGWOOD STN 46.9 NM
YRNW NE 49°
VFR Chart
Flight Planning at SkyVector.com